createdAt,value
2023-04-06T00:00:27.443Z,6.90
2023-04-06T00:02:58.520Z,6.97
2023-04-06T00:05:31.567Z,7.60
2023-04-06T00:08:00.519Z,6.77
2023-04-06T00:10:30.165Z,6.13
2023-04-06T00:12:59.189Z,7.33
2023-04-06T00:15:28.507Z,8.57
2023-04-06T00:17:58.023Z,7.90
2023-04-06T00:20:29.485Z,6.87
2023-04-06T00:22:59.019Z,7.43
2023-04-06T00:25:28.564Z,8.20
2023-04-06T00:28:01.253Z,7.40
2023-04-06T00:30:33.562Z,7.17
2023-04-06T00:33:06.640Z,7.73
2023-04-06T00:35:39.881Z,9.17
2023-04-06T00:38:12.604Z,8.50
2023-04-06T00:41:12.778Z,8.90
2023-04-06T00:44:26.416Z,7.93
2023-04-06T00:46:59.749Z,10.87
2023-04-06T00:49:32.455Z,11.13
2023-04-06T00:52:03.975Z,6.17
2023-04-06T00:54:32.849Z,8.70
2023-04-06T00:57:01.486Z,7.47
2023-04-06T00:59:31.892Z,7.57
2023-04-06T01:02:00.550Z,12.37
2023-04-06T01:04:30.654Z,9.17
2023-04-06T01:06:59.132Z,9.17
2023-04-06T01:09:27.615Z,9.50
2023-04-06T01:11:56.517Z,8.17
2023-04-06T01:14:26.897Z,7.83
2023-04-06T01:16:55.448Z,7.73
2023-04-06T01:19:25.108Z,7.50
2023-04-06T01:21:55.291Z,8.53
2023-04-06T01:24:25.536Z,8.80
2023-04-06T01:26:54.021Z,7.97
2023-04-06T01:29:22.922Z,8.20
2023-04-06T01:31:51.529Z,6.53
2023-04-06T01:34:20.217Z,8.37
2023-04-06T01:36:51.312Z,8.53
2023-04-06T01:39:19.832Z,9.00
2023-04-06T01:41:49.760Z,11.43
2023-04-06T01:44:19.427Z,8.10
2023-04-06T01:46:48.110Z,8.93
2023-04-06T01:49:18.901Z,9.70
2023-04-06T01:51:47.408Z,8.47
2023-04-06T01:54:17.986Z,9.70
2023-04-06T01:56:47.184Z,9.47
2023-04-06T01:59:16.960Z,8.10
2023-04-06T02:01:45.255Z,8.97
2023-04-06T02:04:20.527Z,7.80
2023-04-06T02:06:49.852Z,7.00
2023-04-06T02:09:19.400Z,7.77
2023-04-06T02:11:47.613Z,11.10
2023-04-06T02:14:17.157Z,9.00
2023-04-06T02:16:45.432Z,10.00
2023-04-06T02:19:14.692Z,9.23
2023-04-06T02:21:42.866Z,11.53
2023-04-06T02:24:11.449Z,8.27
2023-04-06T02:26:39.729Z,9.60
2023-04-06T02:29:08.623Z,10.33
2023-04-06T02:31:38.482Z,11.97
2023-04-06T02:34:08.219Z,8.70
2023-04-06T02:36:36.380Z,8.40
2023-04-06T02:39:05.567Z,9.73
2023-04-06T02:41:35.041Z,9.50
2023-04-06T02:44:04.330Z,7.87
2023-04-06T02:46:33.589Z,10.23
2023-04-06T02:49:04.373Z,10.40
2023-04-06T02:51:32.520Z,8.00
2023-04-06T02:54:00.722Z,8.10
2023-04-06T02:56:28.898Z,8.47
2023-04-06T02:58:57.018Z,7.70
2023-04-06T03:01:25.464Z,7.60
2023-04-06T03:03:53.651Z,10.23
2023-04-06T03:06:23.435Z,8.47
2023-04-06T03:08:51.674Z,9.97
2023-04-06T03:11:19.760Z,9.03
2023-04-06T03:13:47.966Z,10.20
2023-04-06T03:16:16.275Z,10.50
2023-04-06T03:18:45.754Z,10.00
2023-04-06T03:21:13.925Z,10.03
2023-04-06T03:23:43.570Z,12.57
2023-04-06T03:26:12.317Z,8.83
2023-04-06T03:28:40.648Z,8.37
2023-04-06T03:31:08.954Z,10.50
2023-04-06T03:33:37.061Z,8.77
2023-04-06T03:36:06.148Z,9.87
2023-04-06T03:38:34.338Z,9.20
2023-04-06T03:41:04.109Z,9.63
2023-04-06T03:43:32.464Z,9.03
2023-04-06T03:46:00.635Z,10.63
2023-04-06T03:48:28.843Z,10.40
2023-04-06T03:50:58.000Z,9.40
2023-04-06T03:53:27.102Z,9.83
2023-04-06T03:55:56.434Z,8.53
2023-04-06T03:58:27.220Z,13.40
2023-04-06T04:00:56.536Z,8.07
2023-04-06T04:03:28.152Z,11.23
2023-04-06T04:05:57.665Z,8.97
2023-04-06T04:08:27.233Z,10.17
2023-04-06T04:11:10.340Z,7.63
2023-04-06T04:13:40.370Z,9.33
2023-04-06T04:16:08.823Z,9.23
2023-04-06T04:18:37.774Z,9.57
2023-04-06T04:21:06.398Z,10.50
2023-04-06T04:23:37.096Z,11.17
2023-04-06T04:26:05.879Z,10.20
2023-04-06T04:28:34.257Z,9.57
2023-04-06T04:31:04.110Z,10.13
2023-04-06T04:33:32.537Z,10.23
2023-04-06T04:36:01.072Z,10.20
2023-04-06T04:38:30.401Z,10.60
2023-04-06T04:41:00.111Z,11.17
2023-04-06T04:43:32.634Z,14.87
2023-04-06T04:46:01.592Z,13.80
2023-04-06T04:48:31.475Z,13.27
2023-04-06T04:50:59.872Z,9.30
2023-04-06T04:53:28.441Z,11.40
2023-04-06T04:55:56.905Z,12.90
2023-04-06T04:58:25.536Z,11.77
2023-04-06T05:00:54.185Z,11.10
2023-04-06T05:03:24.273Z,11.70
2023-04-06T05:05:54.651Z,10.27
2023-04-06T05:08:23.066Z,12.07
2023-04-06T05:10:51.730Z,9.47
2023-04-06T05:13:20.553Z,11.33
2023-04-06T05:15:49.154Z,11.37
2023-04-06T05:18:17.647Z,12.60
2023-04-06T05:20:46.258Z,13.27
2023-04-06T05:23:16.142Z,12.60
2023-04-06T05:25:45.707Z,12.83
2023-04-06T05:28:15.284Z,10.17
2023-04-06T05:30:43.847Z,11.67
2023-04-06T05:33:12.399Z,11.70
2023-04-06T05:35:40.850Z,13.00
2023-04-06T05:38:11.029Z,13.70
2023-04-06T05:40:42.399Z,11.67
2023-04-06T05:43:10.854Z,11.50
2023-04-06T05:45:39.434Z,12.23
2023-04-06T05:48:08.175Z,10.53
2023-04-06T05:50:38.721Z,15.33
2023-04-06T05:53:07.134Z,10.87
2023-04-06T05:55:35.546Z,11.00
2023-04-06T05:58:05.683Z,12.63
2023-04-06T06:00:34.186Z,11.00
2023-04-06T06:03:05.217Z,12.33
2023-04-06T06:05:33.750Z,12.03
2023-04-06T06:08:03.183Z,12.23
2023-04-06T06:10:32.060Z,12.27
2023-04-06T06:13:00.486Z,11.10
2023-04-06T06:15:30.285Z,10.60
2023-04-06T06:17:58.726Z,12.87
2023-04-06T06:20:27.495Z,9.83
2023-04-06T06:22:55.923Z,13.40
2023-04-06T06:25:24.342Z,12.93
2023-04-06T06:27:53.453Z,15.47
2023-04-06T06:30:23.488Z,13.07
2023-04-06T06:32:54.047Z,11.83
2023-04-06T06:35:22.538Z,15.03
2023-04-06T06:38:35.124Z,13.33
2023-04-06T06:41:47.439Z,11.70
2023-04-06T06:44:59.748Z,12.87
2023-04-06T06:48:10.355Z,12.37
2023-04-06T06:51:22.414Z,13.73
2023-04-06T06:54:32.786Z,11.77
2023-04-06T06:57:36.437Z,10.00
2023-04-06T07:00:46.324Z,11.97
2023-04-06T07:03:53.683Z,10.63
2023-04-06T07:06:56.218Z,12.07
2023-04-06T07:10:04.874Z,14.63
2023-04-06T07:13:20.015Z,10.03
2023-04-06T07:15:48.642Z,9.43
2023-04-06T07:18:17.178Z,14.57
2023-04-06T07:20:45.639Z,9.47
2023-04-06T07:23:16.109Z,9.40
2023-04-06T07:25:44.266Z,10.77
2023-04-06T07:28:12.667Z,11.33
2023-04-06T07:30:41.368Z,14.33
2023-04-06T07:33:09.524Z,13.57
2023-04-06T07:35:37.850Z,11.13
2023-04-06T07:38:06.352Z,11.23
2023-04-06T07:40:35.934Z,10.47
2023-04-06T07:43:04.118Z,10.30
2023-04-06T07:45:32.545Z,10.73
2023-04-06T07:48:00.884Z,12.90
2023-04-06T07:50:29.108Z,10.67
2023-04-06T07:52:57.215Z,10.53
2023-04-06T07:55:25.594Z,13.80
2023-04-06T07:57:55.223Z,10.23
2023-04-06T08:00:24.081Z,10.87
2023-04-06T08:02:52.321Z,12.03
2023-04-06T08:05:20.591Z,12.83
2023-04-06T08:07:48.773Z,13.23
2023-04-06T08:10:16.963Z,10.70
2023-04-06T08:12:50.240Z,9.80
2023-04-06T08:15:20.370Z,10.67
2023-04-06T08:17:48.643Z,11.47
2023-04-06T08:20:16.953Z,13.27
2023-04-06T08:22:45.290Z,8.80
2023-04-06T08:25:13.411Z,10.97
2023-04-06T08:27:41.759Z,10.93
2023-04-06T08:30:10.554Z,11.37
2023-04-06T08:32:42.213Z,10.20
2023-04-06T08:35:10.820Z,11.00
2023-04-06T08:37:39.268Z,11.63
2023-04-06T08:40:08.622Z,11.37
2023-04-06T08:42:42.032Z,13.03
2023-04-06T08:45:11.534Z,9.57
2023-04-06T08:47:41.867Z,10.23
2023-04-06T08:50:12.248Z,10.40
2023-04-06T08:52:41.485Z,9.93
2023-04-06T08:55:10.523Z,10.20
2023-04-06T08:57:39.349Z,9.37
2023-04-06T09:00:09.992Z,11.00
2023-04-06T09:02:44.623Z,8.15
2023-04-06T09:05:13.034Z,9.75
2023-04-06T09:07:41.398Z,9.93
2023-04-06T09:10:10.436Z,11.37
2023-04-06T09:12:38.637Z,10.57
2023-04-06T09:15:07.944Z,10.57
2023-04-06T09:17:37.647Z,10.30
2023-04-06T09:20:08.328Z,13.97
2023-04-06T09:22:39.504Z,11.52
2023-04-06T09:25:08.912Z,12.25
2023-04-06T09:27:39.299Z,10.63
2023-04-06T09:30:09.762Z,9.30
2023-04-06T09:32:50.701Z,13.77
2023-04-06T09:35:21.997Z,9.88
2023-04-06T09:37:50.901Z,12.30
2023-04-06T09:40:20.130Z,10.80
2023-04-06T09:42:49.539Z,9.30
2023-04-06T09:45:17.938Z,8.75
2023-04-06T09:47:47.350Z,9.52
2023-04-06T09:50:17.309Z,11.00
2023-04-06T09:52:51.269Z,10.20
2023-04-06T09:55:30.452Z,10.70
2023-04-06T09:58:06.086Z,9.57
2023-04-06T10:00:37.002Z,10.23
2023-04-06T10:03:14.564Z,10.25
2023-04-06T10:05:48.985Z,11.25
2023-04-06T10:08:20.461Z,11.02
2023-04-06T10:10:49.794Z,8.93
2023-04-06T10:13:18.151Z,10.50
2023-04-06T10:15:47.091Z,9.93
2023-04-06T10:18:16.544Z,10.88
2023-04-06T10:20:54.069Z,11.68
2023-04-06T10:23:31.780Z,14.82
2023-04-06T10:26:01.436Z,10.85
2023-04-06T10:28:33.654Z,12.02
2023-04-06T10:31:03.446Z,12.00
2023-04-06T10:33:31.622Z,8.90
2023-04-06T10:36:00.497Z,12.13
2023-04-06T10:38:41.743Z,9.73
2023-04-06T10:41:14.705Z,10.85
2023-04-06T10:43:43.489Z,8.48
2023-04-06T10:46:12.700Z,11.90
2023-04-06T10:48:42.097Z,9.65
2023-04-06T10:51:14.398Z,9.18
2023-04-06T10:53:45.459Z,9.70
2023-04-06T10:56:16.548Z,9.52
2023-04-06T10:58:48.618Z,10.15
2023-04-06T11:01:18.147Z,10.57
2023-04-06T11:03:47.287Z,9.65
2023-04-06T11:06:20.948Z,8.68
2023-04-06T11:08:51.172Z,9.07
2023-04-06T11:11:21.155Z,8.85
2023-04-06T11:13:51.553Z,11.02
2023-04-06T11:16:21.698Z,10.55
2023-04-06T11:18:55.110Z,9.88
2023-04-06T11:21:38.552Z,8.88
2023-04-06T11:24:14.748Z,9.07
2023-04-06T11:26:50.198Z,9.68
2023-04-06T11:29:19.776Z,8.90
2023-04-06T11:31:49.953Z,9.25
2023-04-06T11:34:20.283Z,9.00
2023-04-06T11:36:50.431Z,9.85
2023-04-06T11:39:24.212Z,8.32
2023-04-06T11:41:53.115Z,8.02
2023-04-06T11:44:35.292Z,7.93
2023-04-06T11:47:04.590Z,7.20
2023-04-06T11:49:33.719Z,8.98
2023-04-06T11:52:02.940Z,8.07
2023-04-06T11:54:37.851Z,8.63
2023-04-06T11:57:06.806Z,8.38
2023-04-06T11:59:35.372Z,10.25
2023-04-06T12:02:04.397Z,7.35
2023-04-06T12:04:32.901Z,7.95
2023-04-06T12:07:01.100Z,7.90
2023-04-06T12:09:29.441Z,5.60
2023-04-06T12:11:59.232Z,8.40
2023-04-06T12:14:27.400Z,7.28
2023-04-06T12:16:55.604Z,7.07
2023-04-06T12:19:26.551Z,6.22
2023-04-06T12:21:55.540Z,5.88
2023-04-06T12:24:23.849Z,7.40
2023-04-06T12:26:59.608Z,7.93
2023-04-06T12:29:36.461Z,6.97
2023-04-06T12:32:04.839Z,6.95
2023-04-06T12:34:33.227Z,8.80
2023-04-06T12:37:01.646Z,10.25
2023-04-06T12:39:31.961Z,7.57
2023-04-06T12:42:01.304Z,6.80
2023-04-06T12:44:29.488Z,8.30
2023-04-06T12:46:59.129Z,7.28
2023-04-06T12:49:28.655Z,6.25
2023-04-06T12:51:57.629Z,6.75
2023-04-06T12:54:27.742Z,6.97
2023-04-06T12:56:56.840Z,7.28
2023-04-06T12:59:26.261Z,6.65
2023-04-06T13:01:54.692Z,6.70
2023-04-06T13:04:25.112Z,5.63
2023-04-06T13:06:53.336Z,7.18
2023-04-06T13:09:21.759Z,6.18
2023-04-06T13:11:49.912Z,7.43
2023-04-06T13:14:18.177Z,7.43
2023-04-06T13:16:47.154Z,6.93
2023-04-06T13:19:15.897Z,8.77
2023-04-06T13:21:45.458Z,6.32
2023-04-06T13:24:14.991Z,8.55
2023-04-06T13:26:44.598Z,7.88
2023-04-06T13:29:12.833Z,9.25
2023-04-06T13:31:41.083Z,6.65
2023-04-06T13:34:09.551Z,6.07
2023-04-06T13:36:37.829Z,6.95
2023-04-06T13:39:07.602Z,8.57
2023-04-06T13:41:35.895Z,7.68
2023-04-06T13:44:04.083Z,8.68
2023-04-06T13:46:32.199Z,7.50
2023-04-06T13:49:00.466Z,8.60
2023-04-06T13:51:29.116Z,7.70
2023-04-06T13:54:00.690Z,7.03
2023-04-06T13:56:30.544Z,6.68
2023-04-06T13:58:59.834Z,7.32
2023-04-06T14:01:28.138Z,6.85
2023-04-06T14:03:56.378Z,7.28
2023-04-06T14:06:31.343Z,7.03
2023-04-06T14:09:00.363Z,7.43
2023-04-06T14:11:30.309Z,9.57
2023-04-06T14:13:58.811Z,8.10
2023-04-06T14:16:27.608Z,7.75
2023-04-06T14:18:56.020Z,8.05
2023-04-06T14:21:24.075Z,7.80
2023-04-06T14:23:53.551Z,8.10
2023-04-06T14:26:21.650Z,9.00
2023-04-06T14:28:51.631Z,7.75
2023-04-06T14:31:19.734Z,7.22
2023-04-06T14:33:48.043Z,9.15
2023-04-06T14:36:16.460Z,9.60
2023-04-06T14:38:45.066Z,7.32
2023-04-06T14:41:18.107Z,7.88
2023-04-06T14:43:46.988Z,8.05
2023-04-06T14:46:17.827Z,7.85
2023-04-06T14:48:46.140Z,7.32
2023-04-06T14:51:14.390Z,8.43
2023-04-06T14:53:42.467Z,8.73
2023-04-06T14:56:10.757Z,8.10
2023-04-06T14:58:39.056Z,8.18
2023-04-06T15:01:07.558Z,9.13
2023-04-06T15:03:37.157Z,8.70
2023-04-06T15:06:06.495Z,8.07
2023-04-06T15:08:35.449Z,7.57
2023-04-06T15:11:03.591Z,8.90
2023-04-06T15:13:31.822Z,8.57
2023-04-06T15:16:01.779Z,7.45
2023-04-06T15:18:30.337Z,5.78
2023-04-06T15:20:59.894Z,6.07
2023-04-06T15:23:30.528Z,6.72
2023-04-06T15:25:58.780Z,6.70
2023-04-06T15:28:27.062Z,6.85
2023-04-06T15:30:56.363Z,6.18
2023-04-06T15:33:24.537Z,6.05
2023-04-06T15:35:52.727Z,6.13
2023-04-06T15:38:22.151Z,6.45
2023-04-06T15:40:51.210Z,5.85
2023-04-06T15:43:19.324Z,6.93
2023-04-06T15:45:47.427Z,5.68
2023-04-06T15:48:15.989Z,6.15
2023-04-06T15:50:44.117Z,5.75
2023-04-06T15:53:12.687Z,7.18
2023-04-06T15:55:42.121Z,5.35
2023-04-06T15:58:10.236Z,7.60
2023-04-06T16:00:38.316Z,5.45
2023-04-06T16:03:06.588Z,6.95
2023-04-06T16:05:39.935Z,6.75
2023-04-06T16:08:17.253Z,6.15
2023-04-06T16:10:47.380Z,5.93
2023-04-06T16:13:15.531Z,6.45
2023-04-06T16:15:44.970Z,6.20
2023-04-06T16:18:13.021Z,6.75
2023-04-06T16:20:41.435Z,7.25
2023-04-06T16:23:09.577Z,6.13
2023-04-06T16:25:37.784Z,6.35
2023-04-06T16:28:07.281Z,4.90
2023-04-06T16:30:38.281Z,4.82
2023-04-06T16:33:06.433Z,4.68
2023-04-06T16:35:34.757Z,6.15
2023-04-06T16:38:02.848Z,4.85
2023-04-06T16:40:31.137Z,7.38
2023-04-06T16:42:59.465Z,6.63
2023-04-06T16:45:28.915Z,5.65
2023-04-06T16:47:57.025Z,6.97
2023-04-06T16:50:25.128Z,8.82
2023-04-06T16:52:53.235Z,5.75
2023-04-06T16:55:21.528Z,4.90
2023-04-06T16:57:50.017Z,5.32
2023-04-06T17:00:19.123Z,4.30
2023-04-06T17:02:49.744Z,4.57
2023-04-06T17:05:21.932Z,5.17
2023-04-06T17:07:50.077Z,6.32
2023-04-06T17:10:21.345Z,4.33
2023-04-06T17:12:57.035Z,5.37
2023-04-06T17:15:26.257Z,5.30
2023-04-06T17:17:55.759Z,5.63
2023-04-06T17:20:23.924Z,5.55
2023-04-06T17:22:51.964Z,5.20
2023-04-06T17:25:20.186Z,4.93
2023-04-06T17:27:48.667Z,4.83
2023-04-06T17:30:18.395Z,4.93
2023-04-06T17:32:47.266Z,4.17
2023-04-06T17:35:16.760Z,3.70
2023-04-06T17:37:45.753Z,9.60
2023-04-06T17:40:14.152Z,5.33
2023-04-06T17:42:42.308Z,6.63
2023-04-06T17:45:10.647Z,3.97
2023-04-06T17:47:38.711Z,9.50
2023-04-06T17:50:08.055Z,5.50
2023-04-06T17:52:37.764Z,6.97
2023-04-06T17:55:06.395Z,5.40
2023-04-06T17:57:34.599Z,6.30
2023-04-06T18:00:02.727Z,5.10
2023-04-06T18:02:31.411Z,5.63
2023-04-06T18:04:59.511Z,4.40
2023-04-06T18:07:27.592Z,5.17
2023-04-06T18:09:57.025Z,4.70
2023-04-06T18:12:25.055Z,5.27
2023-04-06T18:14:54.193Z,6.13
2023-04-06T18:17:22.338Z,6.23
2023-04-06T18:19:50.554Z,6.30
2023-04-06T18:22:19.585Z,4.50
2023-04-06T18:24:47.615Z,6.00
2023-04-06T18:27:17.795Z,4.67
2023-04-06T18:29:47.432Z,7.27
2023-04-06T18:32:16.644Z,9.23
2023-04-06T18:34:45.957Z,5.43
2023-04-06T18:37:14.332Z,7.73
2023-04-06T18:39:44.437Z,4.20
2023-04-06T18:42:12.705Z,3.90
2023-04-06T18:44:42.202Z,4.37
2023-04-06T18:47:10.529Z,2.77
2023-04-06T18:49:38.723Z,4.40
2023-04-06T18:52:07.028Z,3.70
2023-04-06T18:54:35.345Z,4.13
2023-04-06T18:57:04.145Z,4.37
2023-04-06T18:59:33.180Z,4.60
2023-04-06T19:02:02.738Z,4.70
2023-04-06T19:04:31.487Z,4.67
2023-04-06T19:07:00.842Z,3.30
2023-04-06T19:09:29.414Z,5.80
2023-04-06T19:11:57.546Z,3.97
2023-04-06T19:14:26.135Z,3.97
2023-04-06T19:16:54.326Z,4.10
2023-04-06T19:19:23.871Z,3.70
2023-04-06T19:21:51.991Z,4.93
2023-04-06T19:24:20.035Z,4.90
2023-04-06T19:26:48.319Z,7.60
2023-04-06T19:29:16.480Z,4.00
2023-04-06T19:31:44.598Z,4.00
2023-04-06T19:34:17.482Z,8.57
2023-04-06T19:36:47.802Z,3.17
2023-04-06T19:39:16.992Z,4.57
2023-04-06T19:41:45.412Z,5.70
2023-04-06T19:44:13.874Z,5.47
2023-04-06T19:46:42.573Z,4.97
2023-04-06T19:49:10.929Z,4.00
2023-04-06T19:51:39.368Z,7.23
2023-04-06T19:54:08.916Z,7.53
2023-04-06T19:56:37.041Z,7.33
2023-04-06T19:59:05.338Z,6.57
2023-04-06T20:01:33.511Z,6.30
2023-04-06T20:04:01.839Z,6.83
2023-04-06T20:06:31.244Z,5.87
2023-04-06T20:08:59.508Z,6.23
2023-04-06T20:11:28.924Z,5.50
2023-04-06T20:13:56.975Z,6.37
2023-04-06T20:16:25.123Z,6.90
2023-04-06T20:18:54.379Z,7.73
2023-04-06T20:21:22.422Z,5.80
2023-04-06T20:23:52.524Z,5.77
2023-04-06T20:26:24.467Z,6.57
2023-04-06T20:28:55.622Z,5.87
2023-04-06T20:31:31.067Z,6.03
2023-04-06T20:34:00.527Z,7.03
2023-04-06T20:36:29.329Z,5.67
2023-04-06T20:38:59.329Z,6.37
2023-04-06T20:41:27.502Z,5.57
2023-04-06T20:43:57.594Z,5.37
2023-04-06T20:46:26.407Z,7.27
2023-04-06T20:48:54.947Z,7.00
2023-04-06T20:51:24.592Z,5.10
2023-04-06T20:53:53.615Z,5.63
2023-04-06T20:56:23.166Z,5.63
2023-04-06T20:58:52.859Z,7.73
2023-04-06T21:01:24.957Z,5.60
2023-04-06T21:03:54.600Z,5.67
2023-04-06T21:06:22.974Z,8.10
2023-04-06T21:08:52.288Z,7.87
2023-04-06T21:11:21.118Z,7.63
2023-04-06T21:13:49.826Z,6.40
2023-04-06T21:16:18.843Z,6.97
2023-04-06T21:18:48.921Z,5.70
2023-04-06T21:21:17.533Z,5.57
2023-04-06T21:23:45.973Z,7.47
2023-04-06T21:26:14.461Z,7.03
2023-04-06T21:28:42.877Z,7.07
2023-04-06T21:31:11.529Z,7.17
2023-04-06T21:33:39.916Z,10.40
2023-04-06T21:36:10.136Z,13.13
2023-04-06T21:38:38.959Z,7.87
2023-04-06T21:41:07.765Z,7.07
2023-04-06T21:43:36.395Z,6.77
2023-04-06T21:46:05.701Z,7.73
2023-04-06T21:48:34.348Z,8.03
2023-04-06T21:51:03.760Z,8.20
2023-04-06T21:53:33.783Z,8.47
2023-04-06T21:56:02.714Z,8.80
2023-04-06T21:58:32.001Z,8.43
2023-04-06T22:01:01.301Z,8.50
2023-04-06T22:03:29.770Z,7.73
2023-04-06T22:05:59.517Z,11.57
2023-04-06T22:08:33.642Z,8.03
2023-04-06T22:11:10.053Z,9.47
2023-04-06T22:13:39.110Z,8.67
2023-04-06T22:16:08.372Z,7.43
2023-04-06T22:18:39.290Z,7.33
2023-04-06T22:21:07.739Z,10.27
2023-04-06T22:23:41.986Z,8.83
2023-04-06T22:26:13.043Z,8.63
2023-04-06T22:28:42.299Z,9.40
2023-04-06T22:31:10.535Z,9.77
2023-04-06T22:33:40.147Z,10.87
2023-04-06T22:36:08.727Z,9.50
2023-04-06T22:38:37.870Z,9.87
2023-04-06T22:41:07.326Z,10.57
2023-04-06T22:43:38.083Z,8.60
2023-04-06T22:46:06.572Z,9.77
2023-04-06T22:48:34.608Z,8.97
2023-04-06T22:51:02.892Z,8.43
2023-04-06T22:53:31.005Z,9.53
2023-04-06T22:55:59.500Z,8.93
2023-04-06T22:58:28.052Z,8.50
2023-04-06T23:00:57.467Z,8.23
2023-04-06T23:03:25.979Z,7.90
2023-04-06T23:05:54.137Z,8.10
2023-04-06T23:08:22.216Z,8.23
2023-04-06T23:10:53.206Z,11.43
2023-04-06T23:13:21.635Z,8.43
2023-04-06T23:15:49.809Z,8.97
2023-04-06T23:18:19.278Z,7.70
2023-04-06T23:20:47.542Z,8.60
2023-04-06T23:23:16.190Z,8.23
2023-04-06T23:25:45.085Z,9.00
2023-04-06T23:28:13.569Z,8.47
2023-04-06T23:30:42.480Z,10.13
2023-04-06T23:33:20.562Z,7.87
2023-04-06T23:35:52.243Z,10.73
2023-04-06T23:38:29.649Z,7.73
2023-04-06T23:40:58.435Z,8.13
2023-04-06T23:43:29.794Z,9.33
2023-04-06T23:46:01.157Z,8.87
2023-04-06T23:48:41.734Z,9.07
2023-04-06T23:51:10.465Z,9.33
2023-04-06T23:53:50.500Z,9.07
2023-04-06T23:56:19.037Z,7.97
2023-04-06T23:58:47.095Z,8.20
